sensor_id;sensor_type;location;lat;lon;timestamp;P1;durP1;ratioP1;P2;durP2;ratioP2
19830;SDS011;10076;52.008;4.708;2023-04-06T00:00:33;11.57;;;5.73;;
19830;SDS011;10076;52.008;4.708;2023-04-06T00:02:59;10.93;;;5.50;;
19830;SDS011;10076;52.008;4.708;2023-04-06T00:05:24;11.83;;;5.77;;
19830;SDS011;10076;52.008;4.708;2023-04-06T00:07:50;16.40;;;6.03;;
19830;SDS011;10076;52.008;4.708;2023-04-06T00:10:16;16.10;;;6.40;;
19830;SDS011;10076;52.008;4.708;2023-04-06T00:12:41;8.23;;;5.03;;
19830;SDS011;10076;52.008;4.708;2023-04-06T00:15:07;10.47;;;5.37;;
19830;SDS011;10076;52.008;4.708;2023-04-06T00:17:33;13.00;;;5.90;;
19830;SDS011;10076;52.008;4.708;2023-04-06T00:19:58;12.73;;;5.23;;
19830;SDS011;10076;52.008;4.708;2023-04-06T00:22:24;13.60;;;5.27;;
19830;SDS011;10076;52.008;4.708;2023-04-06T00:24:49;10.10;;;5.20;;
19830;SDS011;10076;52.008;4.708;2023-04-06T00:27:15;13.33;;;5.83;;
19830;SDS011;10076;52.008;4.708;2023-04-06T00:29:40;11.50;;;5.33;;
19830;SDS011;10076;52.008;4.708;2023-04-06T00:32:05;11.20;;;4.83;;
19830;SDS011;10076;52.008;4.708;2023-04-06T00:34:31;9.73;;;4.77;;
19830;SDS011;10076;52.008;4.708;2023-04-06T00:36:56;7.63;;;4.50;;
19830;SDS011;10076;52.008;4.708;2023-04-06T00:39:22;8.30;;;4.63;;
19830;SDS011;10076;52.008;4.708;2023-04-06T00:41:49;9.17;;;4.60;;
19830;SDS011;10076;52.008;4.708;2023-04-06T00:44:16;6.80;;;4.07;;
19830;SDS011;10076;52.008;4.708;2023-04-06T00:46:41;8.53;;;4.53;;
19830;SDS011;10076;52.008;4.708;2023-04-06T00:49:07;8.37;;;4.60;;
19830;SDS011;10076;52.008;4.708;2023-04-06T00:51:32;10.10;;;4.70;;
19830;SDS011;10076;52.008;4.708;2023-04-06T00:53:57;11.83;;;4.43;;
19830;SDS011;10076;52.008;4.708;2023-04-06T00:56:23;10.70;;;4.77;;
19830;SDS011;10076;52.008;4.708;2023-04-06T00:58:48;9.30;;;4.83;;
19830;SDS011;10076;52.008;4.708;2023-04-06T01:01:14;10.70;;;4.40;;
19830;SDS011;10076;52.008;4.708;2023-04-06T01:03:40;10.97;;;5.03;;
19830;SDS011;10076;52.008;4.708;2023-04-06T01:06:07;10.67;;;4.43;;
19830;SDS011;10076;52.008;4.708;2023-04-06T01:08:32;8.93;;;4.40;;
19830;SDS011;10076;52.008;4.708;2023-04-06T01:10:58;10.73;;;4.97;;
19830;SDS011;10076;52.008;4.708;2023-04-06T01:13:25;9.23;;;5.27;;
19830;SDS011;10076;52.008;4.708;2023-04-06T01:15:52;16.50;;;5.87;;
19830;SDS011;10076;52.008;4.708;2023-04-06T01:18:17;14.30;;;4.77;;
19830;SDS011;10076;52.008;4.708;2023-04-06T01:20:42;10.43;;;5.10;;
19830;SDS011;10076;52.008;4.708;2023-04-06T01:23:09;12.27;;;5.03;;
19830;SDS011;10076;52.008;4.708;2023-04-06T01:25:35;11.93;;;5.20;;
19830;SDS011;10076;52.008;4.708;2023-04-06T01:28:00;13.93;;;5.33;;
19830;SDS011;10076;52.008;4.708;2023-04-06T01:30:25;11.33;;;5.50;;
19830;SDS011;10076;52.008;4.708;2023-04-06T01:32:51;10.97;;;5.23;;
19830;SDS011;10076;52.008;4.708;2023-04-06T01:35:17;9.07;;;4.83;;
19830;SDS011;10076;52.008;4.708;2023-04-06T01:37:43;7.70;;;4.30;;
19830;SDS011;10076;52.008;4.708;2023-04-06T01:40:08;12.10;;;5.57;;
19830;SDS011;10076;52.008;4.708;2023-04-06T01:42:34;10.37;;;4.93;;
19830;SDS011;10076;52.008;4.708;2023-04-06T01:44:59;12.00;;;5.87;;
19830;SDS011;10076;52.008;4.708;2023-04-06T01:47:25;12.97;;;5.37;;
19830;SDS011;10076;52.008;4.708;2023-04-06T01:49:50;10.67;;;4.80;;
19830;SDS011;10076;52.008;4.708;2023-04-06T01:52:15;9.20;;;4.90;;
19830;SDS011;10076;52.008;4.708;2023-04-06T01:54:41;8.93;;;5.20;;
19830;SDS011;10076;52.008;4.708;2023-04-06T01:57:06;11.70;;;4.83;;
19830;SDS011;10076;52.008;4.708;2023-04-06T01:59:31;10.63;;;5.23;;
19830;SDS011;10076;52.008;4.708;2023-04-06T02:01:56;10.47;;;5.50;;
19830;SDS011;10076;52.008;4.708;2023-04-06T02:04:22;13.60;;;5.37;;
19830;SDS011;10076;52.008;4.708;2023-04-06T02:06:47;12.03;;;5.77;;
19830;SDS011;10076;52.008;4.708;2023-04-06T02:09:12;8.67;;;5.17;;
19830;SDS011;10076;52.008;4.708;2023-04-06T02:11:37;8.77;;;5.23;;
19830;SDS011;10076;52.008;4.708;2023-04-06T02:14:03;11.53;;;5.17;;
19830;SDS011;10076;52.008;4.708;2023-04-06T02:16:28;8.70;;;4.60;;
19830;SDS011;10076;52.008;4.708;2023-04-06T02:18:54;12.47;;;5.63;;
19830;SDS011;10076;52.008;4.708;2023-04-06T02:21:19;12.67;;;5.27;;
19830;SDS011;10076;52.008;4.708;2023-04-06T02:23:45;10.27;;;5.10;;
19830;SDS011;10076;52.008;4.708;2023-04-06T02:26:11;11.93;;;5.03;;
19830;SDS011;10076;52.008;4.708;2023-04-06T02:28:37;7.37;;;4.60;;
19830;SDS011;10076;52.008;4.708;2023-04-06T02:31:02;11.03;;;4.97;;
19830;SDS011;10076;52.008;4.708;2023-04-06T02:33:27;14.53;;;5.13;;
19830;SDS011;10076;52.008;4.708;2023-04-06T02:35:52;12.30;;;5.33;;
19830;SDS011;10076;52.008;4.708;2023-04-06T02:38:18;10.33;;;5.40;;
19830;SDS011;10076;52.008;4.708;2023-04-06T02:40:43;14.37;;;5.60;;
19830;SDS011;10076;52.008;4.708;2023-04-06T02:43:08;8.27;;;4.70;;
19830;SDS011;10076;52.008;4.708;2023-04-06T02:45:33;10.80;;;4.67;;
19830;SDS011;10076;52.008;4.708;2023-04-06T02:47:59;10.63;;;5.60;;
19830;SDS011;10076;52.008;4.708;2023-04-06T02:50:24;15.80;;;6.23;;
19830;SDS011;10076;52.008;4.708;2023-04-06T02:52:51;10.97;;;5.17;;
19830;SDS011;10076;52.008;4.708;2023-04-06T02:55:17;12.33;;;5.30;;
19830;SDS011;10076;52.008;4.708;2023-04-06T02:57:42;12.03;;;5.20;;
19830;SDS011;10076;52.008;4.708;2023-04-06T03:00:07;9.13;;;5.53;;
19830;SDS011;10076;52.008;4.708;2023-04-06T03:02:33;9.40;;;4.77;;
19830;SDS011;10076;52.008;4.708;2023-04-06T03:04:58;9.63;;;5.10;;
19830;SDS011;10076;52.008;4.708;2023-04-06T03:07:24;11.07;;;5.17;;
19830;SDS011;10076;52.008;4.708;2023-04-06T03:09:49;16.17;;;5.70;;
19830;SDS011;10076;52.008;4.708;2023-04-06T03:12:15;10.47;;;5.77;;
19830;SDS011;10076;52.008;4.708;2023-04-06T03:14:40;11.20;;;5.63;;
19830;SDS011;10076;52.008;4.708;2023-04-06T03:17:05;9.20;;;4.80;;
19830;SDS011;10076;52.008;4.708;2023-04-06T03:19:31;12.03;;;5.43;;
19830;SDS011;10076;52.008;4.708;2023-04-06T03:21:56;11.23;;;5.63;;
19830;SDS011;10076;52.008;4.708;2023-04-06T03:24:21;12.30;;;6.03;;
19830;SDS011;10076;52.008;4.708;2023-04-06T03:26:46;12.30;;;5.77;;
19830;SDS011;10076;52.008;4.708;2023-04-06T03:29:12;14.53;;;6.60;;
19830;SDS011;10076;52.008;4.708;2023-04-06T03:31:37;10.57;;;5.47;;
19830;SDS011;10076;52.008;4.708;2023-04-06T03:34:02;11.53;;;6.03;;
19830;SDS011;10076;52.008;4.708;2023-04-06T03:36:29;9.37;;;5.07;;
19830;SDS011;10076;52.008;4.708;2023-04-06T03:38:55;9.37;;;5.33;;
19830;SDS011;10076;52.008;4.708;2023-04-06T03:41:21;13.53;;;6.20;;
19830;SDS011;10076;52.008;4.708;2023-04-06T03:43:46;14.57;;;6.53;;
19830;SDS011;10076;52.008;4.708;2023-04-06T03:46:12;10.67;;;5.87;;
19830;SDS011;10076;52.008;4.708;2023-04-06T03:48:37;11.67;;;5.83;;
19830;SDS011;10076;52.008;4.708;2023-04-06T03:51:02;14.67;;;6.33;;
19830;SDS011;10076;52.008;4.708;2023-04-06T03:53:28;13.23;;;4.73;;
19830;SDS011;10076;52.008;4.708;2023-04-06T03:55:53;12.93;;;5.40;;
19830;SDS011;10076;52.008;4.708;2023-04-06T03:58:18;12.07;;;6.03;;
19830;SDS011;10076;52.008;4.708;2023-04-06T04:00:44;9.50;;;5.90;;
19830;SDS011;10076;52.008;4.708;2023-04-06T04:03:09;12.27;;;6.10;;
19830;SDS011;10076;52.008;4.708;2023-04-06T04:05:35;13.83;;;6.10;;
19830;SDS011;10076;52.008;4.708;2023-04-06T04:08:00;12.87;;;6.73;;
19830;SDS011;10076;52.008;4.708;2023-04-06T04:10:25;13.13;;;6.10;;
19830;SDS011;10076;52.008;4.708;2023-04-06T04:12:50;14.10;;;7.03;;
19830;SDS011;10076;52.008;4.708;2023-04-06T04:15:16;13.67;;;6.53;;
19830;SDS011;10076;52.008;4.708;2023-04-06T04:17:41;12.07;;;6.47;;
19830;SDS011;10076;52.008;4.708;2023-04-06T04:20:11;13.03;;;6.13;;
19830;SDS011;10076;52.008;4.708;2023-04-06T04:22:37;13.03;;;6.27;;
19830;SDS011;10076;52.008;4.708;2023-04-06T04:25:02;16.57;;;6.40;;
19830;SDS011;10076;52.008;4.708;2023-04-06T04:27:27;9.47;;;5.30;;
19830;SDS011;10076;52.008;4.708;2023-04-06T04:29:52;16.20;;;6.50;;
19830;SDS011;10076;52.008;4.708;2023-04-06T04:32:18;13.23;;;5.93;;
19830;SDS011;10076;52.008;4.708;2023-04-06T04:34:43;13.33;;;5.40;;
19830;SDS011;10076;52.008;4.708;2023-04-06T04:37:08;17.20;;;6.83;;
19830;SDS011;10076;52.008;4.708;2023-04-06T04:39:34;13.77;;;6.30;;
19830;SDS011;10076;52.008;4.708;2023-04-06T04:41:59;12.40;;;5.93;;
19830;SDS011;10076;52.008;4.708;2023-04-06T04:44:25;17.53;;;6.13;;
19830;SDS011;10076;52.008;4.708;2023-04-06T04:46:50;16.03;;;6.20;;
19830;SDS011;10076;52.008;4.708;2023-04-06T04:49:15;13.87;;;6.67;;
19830;SDS011;10076;52.008;4.708;2023-04-06T04:51:41;12.30;;;6.23;;
19830;SDS011;10076;52.008;4.708;2023-04-06T04:54:06;13.07;;;5.77;;
19830;SDS011;10076;52.008;4.708;2023-04-06T04:56:31;14.47;;;7.37;;
19830;SDS011;10076;52.008;4.708;2023-04-06T04:58:57;16.20;;;6.20;;
19830;SDS011;10076;52.008;4.708;2023-04-06T05:01:22;13.53;;;6.20;;
19830;SDS011;10076;52.008;4.708;2023-04-06T05:03:47;15.63;;;6.87;;
19830;SDS011;10076;52.008;4.708;2023-04-06T05:06:12;17.97;;;7.50;;
19830;SDS011;10076;52.008;4.708;2023-04-06T05:08:38;13.27;;;6.73;;
19830;SDS011;10076;52.008;4.708;2023-04-06T05:11:03;14.83;;;6.47;;
19830;SDS011;10076;52.008;4.708;2023-04-06T05:13:29;12.47;;;6.13;;
19830;SDS011;10076;52.008;4.708;2023-04-06T05:15:55;13.23;;;6.17;;
19830;SDS011;10076;52.008;4.708;2023-04-06T05:18:21;15.67;;;6.90;;
19830;SDS011;10076;52.008;4.708;2023-04-06T05:20:46;15.67;;;6.80;;
19830;SDS011;10076;52.008;4.708;2023-04-06T05:23:12;12.37;;;6.73;;
19830;SDS011;10076;52.008;4.708;2023-04-06T05:25:37;12.13;;;6.17;;
19830;SDS011;10076;52.008;4.708;2023-04-06T05:28:03;15.73;;;6.80;;
19830;SDS011;10076;52.008;4.708;2023-04-06T05:30:28;15.53;;;7.00;;
19830;SDS011;10076;52.008;4.708;2023-04-06T05:32:53;15.83;;;6.87;;
19830;SDS011;10076;52.008;4.708;2023-04-06T05:35:19;11.67;;;6.63;;
19830;SDS011;10076;52.008;4.708;2023-04-06T05:37:45;17.97;;;6.60;;
19830;SDS011;10076;52.008;4.708;2023-04-06T05:40:10;17.23;;;6.90;;
19830;SDS011;10076;52.008;4.708;2023-04-06T05:42:39;14.03;;;6.17;;
19830;SDS011;10076;52.008;4.708;2023-04-06T05:45:06;13.03;;;6.20;;
19830;SDS011;10076;52.008;4.708;2023-04-06T05:47:32;19.07;;;7.37;;
19830;SDS011;10076;52.008;4.708;2023-04-06T05:49:57;13.83;;;6.80;;
19830;SDS011;10076;52.008;4.708;2023-04-06T05:52:23;18.97;;;7.90;;
19830;SDS011;10076;52.008;4.708;2023-04-06T05:54:48;16.67;;;7.23;;
19830;SDS011;10076;52.008;4.708;2023-04-06T05:57:13;14.40;;;7.13;;
19830;SDS011;10076;52.008;4.708;2023-04-06T05:59:39;16.57;;;8.57;;
19830;SDS011;10076;52.008;4.708;2023-04-06T06:02:04;17.00;;;7.40;;
19830;SDS011;10076;52.008;4.708;2023-04-06T06:04:30;16.10;;;6.27;;
19830;SDS011;10076;52.008;4.708;2023-04-06T06:06:55;14.23;;;6.97;;
19830;SDS011;10076;52.008;4.708;2023-04-06T06:09:21;13.80;;;6.70;;
19830;SDS011;10076;52.008;4.708;2023-04-06T06:11:46;16.27;;;7.77;;
19830;SDS011;10076;52.008;4.708;2023-04-06T06:14:11;17.90;;;6.83;;
19830;SDS011;10076;52.008;4.708;2023-04-06T06:16:37;15.57;;;6.70;;
19830;SDS011;10076;52.008;4.708;2023-04-06T06:19:02;16.20;;;7.10;;
19830;SDS011;10076;52.008;4.708;2023-04-06T06:21:27;13.90;;;6.90;;
19830;SDS011;10076;52.008;4.708;2023-04-06T06:23:52;15.60;;;7.30;;
19830;SDS011;10076;52.008;4.708;2023-04-06T06:26:19;16.47;;;7.67;;
19830;SDS011;10076;52.008;4.708;2023-04-06T06:28:45;14.13;;;6.90;;
19830;SDS011;10076;52.008;4.708;2023-04-06T06:31:10;19.00;;;7.50;;
19830;SDS011;10076;52.008;4.708;2023-04-06T06:33:35;13.20;;;6.73;;
19830;SDS011;10076;52.008;4.708;2023-04-06T06:36:01;17.60;;;7.10;;
19830;SDS011;10076;52.008;4.708;2023-04-06T06:38:26;15.03;;;6.70;;
19830;SDS011;10076;52.008;4.708;2023-04-06T06:40:51;16.03;;;6.90;;
19830;SDS011;10076;52.008;4.708;2023-04-06T06:43:17;17.07;;;7.43;;
19830;SDS011;10076;52.008;4.708;2023-04-06T06:45:42;19.20;;;7.20;;
19830;SDS011;10076;52.008;4.708;2023-04-06T06:48:08;19.77;;;7.57;;
19830;SDS011;10076;52.008;4.708;2023-04-06T06:50:33;13.50;;;7.57;;
19830;SDS011;10076;52.008;4.708;2023-04-06T06:52:59;17.83;;;6.97;;
19830;SDS011;10076;52.008;4.708;2023-04-06T06:55:24;19.23;;;8.17;;
19830;SDS011;10076;52.008;4.708;2023-04-06T06:57:51;15.10;;;7.37;;
19830;SDS011;10076;52.008;4.708;2023-04-06T07:00:17;16.60;;;7.30;;
19830;SDS011;10076;52.008;4.708;2023-04-06T07:02:43;17.27;;;8.13;;
19830;SDS011;10076;52.008;4.708;2023-04-06T07:05:08;16.20;;;7.60;;
19830;SDS011;10076;52.008;4.708;2023-04-06T07:07:34;15.80;;;7.60;;
19830;SDS011;10076;52.008;4.708;2023-04-06T07:10:00;14.63;;;6.90;;
19830;SDS011;10076;52.008;4.708;2023-04-06T07:12:26;15.77;;;6.53;;
19830;SDS011;10076;52.008;4.708;2023-04-06T07:14:51;16.83;;;8.10;;
19830;SDS011;10076;52.008;4.708;2023-04-06T07:17:17;16.27;;;7.17;;
19830;SDS011;10076;52.008;4.708;2023-04-06T07:19:42;14.73;;;6.30;;
19830;SDS011;10076;52.008;4.708;2023-04-06T07:22:08;17.80;;;7.83;;
19830;SDS011;10076;52.008;4.708;2023-04-06T07:24:33;20.23;;;8.23;;
19830;SDS011;10076;52.008;4.708;2023-04-06T07:26:59;20.43;;;8.70;;
19830;SDS011;10076;52.008;4.708;2023-04-06T07:29:25;21.50;;;8.60;;
19830;SDS011;10076;52.008;4.708;2023-04-06T07:31:51;21.40;;;8.30;;
19830;SDS011;10076;52.008;4.708;2023-04-06T07:34:17;17.07;;;8.47;;
19830;SDS011;10076;52.008;4.708;2023-04-06T07:36:42;17.20;;;7.40;;
19830;SDS011;10076;52.008;4.708;2023-04-06T07:39:07;17.27;;;8.60;;
19830;SDS011;10076;52.008;4.708;2023-04-06T07:41:33;19.67;;;8.43;;
19830;SDS011;10076;52.008;4.708;2023-04-06T07:43:58;16.03;;;7.90;;
19830;SDS011;10076;52.008;4.708;2023-04-06T07:46:23;21.13;;;8.17;;
19830;SDS011;10076;52.008;4.708;2023-04-06T07:48:49;22.07;;;8.50;;
19830;SDS011;10076;52.008;4.708;2023-04-06T07:51:15;20.33;;;9.30;;
19830;SDS011;10076;52.008;4.708;2023-04-06T07:53:42;20.00;;;8.70;;
19830;SDS011;10076;52.008;4.708;2023-04-06T07:56:08;18.87;;;9.50;;
19830;SDS011;10076;52.008;4.708;2023-04-06T07:58:34;19.87;;;8.87;;
19830;SDS011;10076;52.008;4.708;2023-04-06T08:00:59;18.60;;;8.10;;
19830;SDS011;10076;52.008;4.708;2023-04-06T08:03:25;21.47;;;8.37;;
19830;SDS011;10076;52.008;4.708;2023-04-06T08:05:51;13.70;;;6.67;;
19830;SDS011;10076;52.008;4.708;2023-04-06T08:08:17;17.87;;;8.07;;
19830;SDS011;10076;52.008;4.708;2023-04-06T08:10:43;21.17;;;8.57;;
19830;SDS011;10076;52.008;4.708;2023-04-06T08:13:08;19.03;;;9.10;;
19830;SDS011;10076;52.008;4.708;2023-04-06T08:15:34;19.93;;;8.00;;
19830;SDS011;10076;52.008;4.708;2023-04-06T08:17:59;19.57;;;9.30;;
19830;SDS011;10076;52.008;4.708;2023-04-06T08:20:25;17.90;;;9.10;;
19830;SDS011;10076;52.008;4.708;2023-04-06T08:22:50;20.37;;;8.40;;
19830;SDS011;10076;52.008;4.708;2023-04-06T08:25:15;22.40;;;9.27;;
19830;SDS011;10076;52.008;4.708;2023-04-06T08:27:41;17.50;;;8.93;;
19830;SDS011;10076;52.008;4.708;2023-04-06T08:30:06;17.27;;;8.13;;
19830;SDS011;10076;52.008;4.708;2023-04-06T08:32:31;22.43;;;9.43;;
19830;SDS011;10076;52.008;4.708;2023-04-06T08:34:57;19.13;;;8.53;;
19830;SDS011;10076;52.008;4.708;2023-04-06T08:37:22;18.53;;;8.67;;
19830;SDS011;10076;52.008;4.708;2023-04-06T08:39:48;24.23;;;10.13;;
19830;SDS011;10076;52.008;4.708;2023-04-06T08:42:16;19.53;;;8.87;;
19830;SDS011;10076;52.008;4.708;2023-04-06T08:44:44;18.00;;;8.93;;
19830;SDS011;10076;52.008;4.708;2023-04-06T08:47:10;19.27;;;8.33;;
19830;SDS011;10076;52.008;4.708;2023-04-06T08:49:37;18.23;;;7.87;;
19830;SDS011;10076;52.008;4.708;2023-04-06T08:52:05;22.50;;;9.37;;
19830;SDS011;10076;52.008;4.708;2023-04-06T08:54:31;22.33;;;8.70;;
19830;SDS011;10076;52.008;4.708;2023-04-06T08:56:57;18.93;;;8.70;;
19830;SDS011;10076;52.008;4.708;2023-04-06T08:59:23;21.00;;;8.10;;
19830;SDS011;10076;52.008;4.708;2023-04-06T09:01:49;14.20;;;7.23;;
19830;SDS011;10076;52.008;4.708;2023-04-06T09:04:16;19.60;;;8.60;;
19830;SDS011;10076;52.008;4.708;2023-04-06T09:06:42;19.67;;;8.37;;
19830;SDS011;10076;52.008;4.708;2023-04-06T09:09:07;16.33;;;6.70;;
19830;SDS011;10076;52.008;4.708;2023-04-06T09:11:43;12.73;;;5.83;;
19830;SDS011;10076;52.008;4.708;2023-04-06T09:14:15;20.17;;;7.20;;
19830;SDS011;10076;52.008;4.708;2023-04-06T09:16:42;13.47;;;6.03;;
19830;SDS011;10076;52.008;4.708;2023-04-06T09:19:09;15.90;;;5.87;;
19830;SDS011;10076;52.008;4.708;2023-04-06T09:21:35;12.20;;;5.87;;
19830;SDS011;10076;52.008;4.708;2023-04-06T09:24:02;10.87;;;5.47;;
19830;SDS011;10076;52.008;4.708;2023-04-06T09:26:28;12.03;;;5.33;;
19830;SDS011;10076;52.008;4.708;2023-04-06T09:28:54;10.73;;;5.03;;
19830;SDS011;10076;52.008;4.708;2023-04-06T09:31:21;10.90;;;5.13;;
19830;SDS011;10076;52.008;4.708;2023-04-06T09:33:50;8.33;;;3.97;;
19830;SDS011;10076;52.008;4.708;2023-04-06T09:36:17;10.07;;;4.87;;
19830;SDS011;10076;52.008;4.708;2023-04-06T09:41:26;9.33;;;4.43;;
19830;SDS011;10076;52.008;4.708;2023-04-06T09:44:01;10.40;;;4.33;;
19830;SDS011;10076;52.008;4.708;2023-04-06T09:46:37;10.20;;;4.50;;
19830;SDS011;10076;52.008;4.708;2023-04-06T09:49:04;6.10;;;3.50;;
19830;SDS011;10076;52.008;4.708;2023-04-06T09:51:31;9.07;;;3.83;;
19830;SDS011;10076;52.008;4.708;2023-04-06T09:54:02;9.77;;;3.77;;
19830;SDS011;10076;52.008;4.708;2023-04-06T09:56:50;9.60;;;4.40;;
19830;SDS011;10076;52.008;4.708;2023-04-06T09:59:26;8.53;;;3.53;;
19830;SDS011;10076;52.008;4.708;2023-04-06T10:02:06;5.93;;;3.30;;
19830;SDS011;10076;52.008;4.708;2023-04-06T10:04:39;5.97;;;3.27;;
19830;SDS011;10076;52.008;4.708;2023-04-06T10:07:06;8.97;;;3.50;;
19830;SDS011;10076;52.008;4.708;2023-04-06T10:09:32;8.87;;;3.47;;
19830;SDS011;10076;52.008;4.708;2023-04-06T10:12:07;6.03;;;3.20;;
19830;SDS011;10076;52.008;4.708;2023-04-06T10:14:33;7.93;;;3.20;;
19830;SDS011;10076;52.008;4.708;2023-04-06T10:17:02;12.80;;;3.47;;
19830;SDS011;10076;52.008;4.708;2023-04-06T10:19:29;8.63;;;3.67;;
19830;SDS011;10076;52.008;4.708;2023-04-06T10:22:04;5.57;;;3.30;;
19830;SDS011;10076;52.008;4.708;2023-04-06T10:24:31;8.60;;;3.43;;
19830;SDS011;10076;52.008;4.708;2023-04-06T10:27:05;6.93;;;3.70;;
19830;SDS011;10076;52.008;4.708;2023-04-06T10:29:47;10.93;;;3.80;;
19830;SDS011;10076;52.008;4.708;2023-04-06T10:32:16;6.67;;;3.60;;
19830;SDS011;10076;52.008;4.708;2023-04-06T10:34:41;7.30;;;3.83;;
19830;SDS011;10076;52.008;4.708;2023-04-06T10:37:16;11.13;;;3.83;;
19830;SDS011;10076;52.008;4.708;2023-04-06T10:39:47;8.10;;;3.77;;
19830;SDS011;10076;52.008;4.708;2023-04-06T10:42:20;7.07;;;3.43;;
19830;SDS011;10076;52.008;4.708;2023-04-06T10:44:49;6.93;;;4.23;;
19830;SDS011;10076;52.008;4.708;2023-04-06T10:47:15;7.47;;;4.03;;
19830;SDS011;10076;52.008;4.708;2023-04-06T10:49:43;6.87;;;3.77;;
19830;SDS011;10076;52.008;4.708;2023-04-06T10:52:08;8.47;;;3.80;;
19830;SDS011;10076;52.008;4.708;2023-04-06T10:54:34;5.73;;;3.40;;
19830;SDS011;10076;52.008;4.708;2023-04-06T10:57:10;6.63;;;3.47;;
19830;SDS011;10076;52.008;4.708;2023-04-06T10:59:35;8.47;;;4.03;;
19830;SDS011;10076;52.008;4.708;2023-04-06T11:02:00;7.17;;;3.67;;
19830;SDS011;10076;52.008;4.708;2023-04-06T11:04:26;7.80;;;3.80;;
19830;SDS011;10076;52.008;4.708;2023-04-06T11:06:51;6.60;;;3.60;;
19830;SDS011;10076;52.008;4.708;2023-04-06T11:09:50;8.93;;;3.83;;
19830;SDS011;10076;52.008;4.708;2023-04-06T11:12:23;7.23;;;3.60;;
19830;SDS011;10076;52.008;4.708;2023-04-06T11:14:57;7.83;;;3.80;;
19830;SDS011;10076;52.008;4.708;2023-04-06T11:17:28;7.30;;;3.73;;
19830;SDS011;10076;52.008;4.708;2023-04-06T11:19:54;6.97;;;4.23;;
19830;SDS011;10076;52.008;4.708;2023-04-06T11:22:20;7.93;;;4.63;;
19830;SDS011;10076;52.008;4.708;2023-04-06T11:24:45;8.63;;;4.30;;
19830;SDS011;10076;52.008;4.708;2023-04-06T11:27:10;8.73;;;4.77;;
19830;SDS011;10076;52.008;4.708;2023-04-06T11:29:36;10.03;;;4.20;;
19830;SDS011;10076;52.008;4.708;2023-04-06T11:32:04;10.87;;;4.37;;
19830;SDS011;10076;52.008;4.708;2023-04-06T11:34:32;9.37;;;4.97;;
19830;SDS011;10076;52.008;4.708;2023-04-06T11:37:02;9.20;;;4.23;;
19830;SDS011;10076;52.008;4.708;2023-04-06T11:39:31;15.47;;;5.13;;
19830;SDS011;10076;52.008;4.708;2023-04-06T11:41:58;9.30;;;4.43;;
19830;SDS011;10076;52.008;4.708;2023-04-06T11:44:39;8.77;;;5.00;;
19830;SDS011;10076;52.008;4.708;2023-04-06T11:47:08;6.33;;;4.40;;
19830;SDS011;10076;52.008;4.708;2023-04-06T11:49:41;8.73;;;4.50;;
19830;SDS011;10076;52.008;4.708;2023-04-06T11:52:41;9.60;;;4.53;;
19830;SDS011;10076;52.008;4.708;2023-04-06T11:55:09;9.23;;;4.03;;
19830;SDS011;10076;52.008;4.708;2023-04-06T11:57:36;7.77;;;4.60;;
19830;SDS011;10076;52.008;4.708;2023-04-06T12:00:01;9.90;;;4.43;;
19830;SDS011;10076;52.008;4.708;2023-04-06T12:02:27;12.03;;;4.13;;
19830;SDS011;10076;52.008;4.708;2023-04-06T12:04:52;6.60;;;3.50;;
19830;SDS011;10076;52.008;4.708;2023-04-06T12:07:17;9.70;;;4.23;;
19830;SDS011;10076;52.008;4.708;2023-04-06T12:09:43;11.33;;;4.17;;
19830;SDS011;10076;52.008;4.708;2023-04-06T12:12:08;7.03;;;3.63;;
19830;SDS011;10076;52.008;4.708;2023-04-06T12:14:33;8.37;;;3.43;;
19830;SDS011;10076;52.008;4.708;2023-04-06T12:16:59;6.70;;;3.97;;
19830;SDS011;10076;52.008;4.708;2023-04-06T12:19:24;6.17;;;3.70;;
19830;SDS011;10076;52.008;4.708;2023-04-06T12:21:50;9.10;;;4.43;;
19830;SDS011;10076;52.008;4.708;2023-04-06T12:24:16;8.37;;;4.33;;
19830;SDS011;10076;52.008;4.708;2023-04-06T12:26:42;8.63;;;4.03;;
19830;SDS011;10076;52.008;4.708;2023-04-06T12:29:07;4.83;;;3.17;;
19830;SDS011;10076;52.008;4.708;2023-04-06T12:31:34;6.47;;;4.27;;
19830;SDS011;10076;52.008;4.708;2023-04-06T12:34:00;8.07;;;4.00;;
19830;SDS011;10076;52.008;4.708;2023-04-06T12:36:27;6.50;;;3.47;;
19830;SDS011;10076;52.008;4.708;2023-04-06T12:38:52;7.23;;;3.90;;
19830;SDS011;10076;52.008;4.708;2023-04-06T12:41:18;6.50;;;3.93;;
19830;SDS011;10076;52.008;4.708;2023-04-06T12:43:44;9.57;;;4.00;;
19830;SDS011;10076;52.008;4.708;2023-04-06T12:46:09;6.13;;;4.23;;
19830;SDS011;10076;52.008;4.708;2023-04-06T12:48:35;8.87;;;4.40;;
19830;SDS011;10076;52.008;4.708;2023-04-06T12:51:02;9.00;;;4.33;;
19830;SDS011;10076;52.008;4.708;2023-04-06T12:53:29;8.80;;;4.60;;
19830;SDS011;10076;52.008;4.708;2023-04-06T12:55:55;10.83;;;4.43;;
19830;SDS011;10076;52.008;4.708;2023-04-06T12:58:22;6.83;;;4.40;;
19830;SDS011;10076;52.008;4.708;2023-04-06T13:00:49;7.57;;;4.33;;
19830;SDS011;10076;52.008;4.708;2023-04-06T13:03:18;9.77;;;4.60;;
19830;SDS011;10076;52.008;4.708;2023-04-06T13:05:45;10.53;;;4.87;;
19830;SDS011;10076;52.008;4.708;2023-04-06T13:08:11;10.17;;;4.77;;
19830;SDS011;10076;52.008;4.708;2023-04-06T13:10:37;9.60;;;4.80;;
19830;SDS011;10076;52.008;4.708;2023-04-06T13:13:03;8.93;;;3.87;;
19830;SDS011;10076;52.008;4.708;2023-04-06T13:15:29;7.90;;;4.50;;
19830;SDS011;10076;52.008;4.708;2023-04-06T13:17:54;10.27;;;3.97;;
19830;SDS011;10076;52.008;4.708;2023-04-06T13:20:20;10.90;;;4.93;;
19830;SDS011;10076;52.008;4.708;2023-04-06T13:22:45;10.87;;;4.83;;
19830;SDS011;10076;52.008;4.708;2023-04-06T13:25:10;8.83;;;4.40;;
19830;SDS011;10076;52.008;4.708;2023-04-06T13:27:36;9.17;;;4.47;;
19830;SDS011;10076;52.008;4.708;2023-04-06T13:30:01;9.80;;;3.93;;
19830;SDS011;10076;52.008;4.708;2023-04-06T13:32:28;9.07;;;4.37;;
19830;SDS011;10076;52.008;4.708;2023-04-06T13:34:56;7.57;;;4.70;;
19830;SDS011;10076;52.008;4.708;2023-04-06T13:37:22;7.77;;;4.60;;
19830;SDS011;10076;52.008;4.708;2023-04-06T13:39:47;7.07;;;4.07;;
19830;SDS011;10076;52.008;4.708;2023-04-06T13:42:12;9.17;;;4.37;;
19830;SDS011;10076;52.008;4.708;2023-04-06T13:44:38;8.70;;;4.47;;
19830;SDS011;10076;52.008;4.708;2023-04-06T13:47:03;10.70;;;4.70;;
19830;SDS011;10076;52.008;4.708;2023-04-06T13:49:28;9.40;;;4.30;;
19830;SDS011;10076;52.008;4.708;2023-04-06T13:51:55;8.77;;;4.40;;
19830;SDS011;10076;52.008;4.708;2023-04-06T13:54:20;10.70;;;5.63;;
19830;SDS011;10076;52.008;4.708;2023-04-06T13:56:45;9.33;;;4.83;;
19830;SDS011;10076;52.008;4.708;2023-04-06T13:59:11;8.17;;;4.50;;
19830;SDS011;10076;52.008;4.708;2023-04-06T14:01:36;6.83;;;4.40;;
19830;SDS011;10076;52.008;4.708;2023-04-06T14:04:02;11.27;;;4.07;;
19830;SDS011;10076;52.008;4.708;2023-04-06T14:06:27;12.80;;;5.33;;
19830;SDS011;10076;52.008;4.708;2023-04-06T14:08:53;8.17;;;5.00;;
19830;SDS011;10076;52.008;4.708;2023-04-06T14:11:18;7.67;;;5.17;;
19830;SDS011;10076;52.008;4.708;2023-04-06T14:13:43;8.77;;;4.27;;
19830;SDS011;10076;52.008;4.708;2023-04-06T14:16:09;8.80;;;4.67;;
19830;SDS011;10076;52.008;4.708;2023-04-06T14:18:35;10.13;;;4.10;;
19830;SDS011;10076;52.008;4.708;2023-04-06T14:21:01;8.90;;;4.70;;
19830;SDS011;10076;52.008;4.708;2023-04-06T14:23:27;10.97;;;4.47;;
19830;SDS011;10076;52.008;4.708;2023-04-06T14:26:05;6.80;;;4.30;;
19830;SDS011;10076;52.008;4.708;2023-04-06T14:28:33;10.20;;;4.53;;
19830;SDS011;10076;52.008;4.708;2023-04-06T14:30:59;6.37;;;3.77;;
19830;SDS011;10076;52.008;4.708;2023-04-06T14:33:26;8.87;;;4.77;;
19830;SDS011;10076;52.008;4.708;2023-04-06T14:35:52;7.93;;;3.80;;